• Join FlightAware (Why Join?)
  • Login
  • US Flag 
12:10PM EDT


 

Airport Tracker/Info


-or-


 

Live Flight TrackerFlight Track Log ✈ N2153N ✈ 04-Jul-2013 ✈ KOLV - KCPS

Flight Track Log - Related Links

Times and Time Zones

All times are in EDT time to prevent confusion due to time zone crossing. See the N2153N flight status page for this flight to view local times or setup timezone preferences in your user account.

Time Position Orientation Groundspeed Altitude Reporting Facility
EDT Latitude Longitude Course Direction KTS MPH feet Rate Location/Type
10:43AM 34.9833 -89.7833 39° Northeast 74 85 700  Level KMEM
10:44AM 35.0000 -89.7667 39° Northeast 85 98 1,300 600 Climbing KMEM
10:45AM 35.0333 -89.7500 22° Northeast 84 97 1,900 600 Climbing KMEM
10:46AM 35.0667 -89.7500 360° North 119 137 2,600 660 Climbing KMEM
10:47AM 35.0833 -89.7500 360° North 93 107 3,300 660 Climbing KMEM
10:48AM 35.1000 -89.7833 301° West 85 98 4,000 660 Climbing KMEM
10:49AM 35.1333 -89.7833 360° North 86 99 4,700 600 Climbing KMEM
10:50AM 35.1500 -89.7833 360° North 87 100 5,300 540 Climbing KMEM
10:51AM 35.1833 -89.7833 360° North 93 107 5,900 540 Climbing KMEM
10:52AM 35.2167 -89.8000 338° Northwest 106 122 6,500 660 Climbing KMEM
10:53AM 35.2333 -89.8000 360° North 106 122 7,100 600 Climbing KMEM
10:54AM 35.2667 -89.8000 360° North 105 121 7,800 600 Climbing KMEM
10:55AM 35.3000 -89.8000 360° North 108 124 8,500 540 Climbing KMEM
10:56AM 35.3333 -89.8000 360° North 109 125 9,000 480 Climbing KMEM
10:57AM 35.3667 -89.8000 360° North 114 131 9,500 540 Climbing KMEM
10:58AM 35.3833 -89.8000 360° North 120 138 9,900 180 Climbing KMEM
10:59AM 35.4333 -89.8167 345° North 172 198 9,900  Level KMEM
11:00AM 35.4942 -89.8164 360° North 185 213 9,900  Level Memphis Center
11:01AM 35.5444 -89.8161 360° North 178 205 10,000  Climbing Memphis Center
11:02AM 35.5944 -89.8183 358° North 178 205 10,000  Level Memphis Center
11:03AM 35.6444 -89.8206 358° North 178 205 10,000  Level Memphis Center
11:04AM 35.6883 -89.8253 355° North 178 205 10,000  Level Memphis Center
11:05AM 35.7342 -89.8353 350° North 171 197 10,000  Level Memphis Center
11:06AM 35.7842 -89.8453 351° North 171 197 10,000  Level Memphis Center
11:07AM 35.8322 -89.8525 353° North 176 203 10,000  Level Memphis Center
11:08AM 35.8803 -89.8625 350° North 176 203 10,000  Level Memphis Center
11:09AM 35.9303 -89.8750 349° North 181 208 10,000  Level Memphis Center
11:10AM 35.9806 -89.8772 358° North 181 208 10,000  Level Memphis Center
11:11AM 36.0325 -89.8847 353° North 181 208 10,000  Level Memphis Center
11:12AM 36.0806 -89.8922 353° North 181 208 10,000  Level Memphis Center
11:13AM 36.1328 -89.8919 360° North 181 208 10,000  Level Memphis Center
11:14AM 36.1828 -89.8967 356° North 181 208 10,000  Level Memphis Center
11:15AM 36.2328 -89.9017 355° North 181 208 10,000  Level Memphis Center
11:16AM 36.2828 -89.9089 353° North 181 208 10,000  Level Memphis Center
11:17AM 36.3328 -89.9139 355° North 181 208 10,000  Level Memphis Center
11:18AM 36.3808 -89.9214 353° North 181 208 10,000 -60 Level Memphis Center
11:19AM 36.4308 -89.9289 353° North 181 208 9,900 -60 Descending Memphis Center
11:20AM 36.4811 -89.9311 358° North 181 208 9,900  Level Memphis Center
11:21AM 36.5311 -89.9361 355° North 181 208 9,900  Level Memphis Center
11:22AM 36.5853 -89.9383 358° North 181 208 9,900  Level Memphis Center
11:23AM 36.6331 -89.9433 355° North 181 208 9,900  Level Memphis Center
11:24AM 36.6811 -89.9481 355° North 181 208 9,900  Level Memphis Center
11:25AM 36.7250 -89.9531 355° North 175 201 9,900  Level Memphis Center
11:26AM 36.7750 -89.9606 353° North 175 201 9,900  Level Memphis Center
11:27AM 36.8208 -89.9631 357° North 175 201 9,900  Level Memphis Center
11:28AM 36.8689 -89.9678 356° North 175 201 9,900  Level Memphis Center
11:29AM 36.9147 -89.9781 350° North 175 201 9,900  Level Memphis Center
11:30AM 36.9606 -89.9856 353° North 170 196 9,900  Level Memphis Center
11:31AM 37.0106 -89.9906 355° North 170 196 9,900  Level Memphis Center
11:33AM 37.0833 -90.0017 353° North 170 196 9,900  Level Kansas City Center
11:34AM 37.1289 -90.0094 352° North 167 192 9,900  Level Kansas City Center
11:35AM 37.1847 -90.0206 351° North 168 193 9,900  Level Kansas City Center
11:36AM 37.2311 -90.0247 356° North 166 191 9,900  Level Kansas City Center
11:37AM 37.2775 -90.0272 358° North 167 192 9,900  Level Kansas City Center
11:38AM 37.3253 -90.0286 359° North 170 196 9,900  Level Kansas City Center
11:39AM 37.3722 -90.0281 North 170 196 9,900 -180 Level Kansas City Center
11:40AM 37.4200 -90.0286 359° North 170 196 9,600 -420 Descending Kansas City Center
11:41AM 37.4697 -90.0311 358° North 177 204 9,100 -600 Descending Kansas City Center
11:42AM 37.5303 -90.0358 356° North 181 208 8,400 -780 Descending Kansas City Center
11:43AM 37.5794 -90.0456 351° North 180 207 7,600 -660 Descending Kansas City Center
11:44AM 37.6242 -90.0464 359° North 179 206 7,100 -360 Descending Kansas City Center
11:45AM 37.6711 -90.0486 358° North 172 198 6,900 -360 Descending Kansas City Center
11:46AM 37.7233 -90.0561 354° North 161 185 6,400 -600 Descending Kansas City Center
11:47AM 37.7708 -90.0678 349° North 171 197 5,700 -660 Descending Kansas City Center
11:48AM 37.8183 -90.0742 354° North 172 198 5,100 -360 Descending Kansas City Center
11:49AM 37.8650 -90.0811 353° North 171 197 5,000 -120 Descending Kansas City Center
11:50AM 37.9050 -90.0908 349° North 154 177 4,900 -60 Descending Kansas City Center
11:51AM 37.9461 -90.0903 North 149 171 4,900  Level Kansas City Center
11:52AM 37.9867 -90.0953 354° North 148 170 4,900  Level Kansas City Center
11:53AM 38.0350 -90.0964 359° North 145 167 4,900  Level Kansas City Center
11:54AM 38.0764 -90.0989 357° North 147 169 4,900  Level Kansas City Center
11:55AM 38.1169 -90.1050 353° North 147 169 4,900  Level Kansas City Center
11:56AM 38.1583 -90.1078 357° North 148 170 5,000 -240 Climbing Kansas City Center
11:57AM 38.2019 -90.1136 354° North 152 175 4,500 -540 Descending Kansas City Center
11:58AM 38.2494 -90.1153 358° North 161 185 4,000 -360 Descending Kansas City Center
11:59AM 38.2994 -90.1206 355° North 158 182 3,800 -540 Descending Kansas City Center
12:00PM 38.3458 -90.1308 350° North 161 185 3,000 -420 Descending Kansas City Center
12:02PM 38.3906 -90.1422 349° North 164 189 3,000  Level Kansas City Center
12:03PM 38.4308 -90.1511 350° North 157 181 3,000 -240 Level Kansas City Center
12:04PM 38.4708 -90.1569 353° North 150 173 2,600 -600 Descending Kansas City Center
12:05PM 38.5164 -90.1519 North 160 184 1,800 -600 Descending Kansas City Center
12:06PM 38.5536 -90.1700 339° North 161 185 1,400 -420 Descending Kansas City Center
12:07PM 38.5731 -90.2078 303° West 132 152 1,000 -300 Descending Kansas City Center
12:08PM 38.5814 -90.1789 70° East 119 137 800 -240 Descending Kansas City Center
12:09PM 38.5633 -90.1492 128° Southeast 117 135 600 -240 Descending Kansas City Center
12:11PM 38.5667 -90.1500 322° Northwest  Level FlightAware Approximate